ADDS METAR Data INFO
IDs: Format: Raw Decoded Include TAF

Data at: 0715 UTC 21 Jul 2018

KRZL 210655Z AUTO 23007KT 10SM OVC025 21/16 A2968 RMK AO2